首页
METAR-TAF:

METAR-TAF

机场 :

Luxeuil-les-Bains, 法国

纬度: 47-47N, 经度: 006-21E, 海拔: 278米

当前天气观测

该预报发布于35分钟前的09:00 UTC
风速4节,风向,在东北东转东南之间变化
温度 8°C
湿度 87%
气压 1007 hPa
能见度10公里或以上
1500米以下无云,无积雨云

METAR: LFSX 220900Z AUTO 09004KT 040V110 CAVOK 08/06 Q1007

时间: 10:35 (09:35 UTC)

预报

该预报发布于1小时和35分钟前的08:00 UTC
预报有效从22日的 09点(UTC)到 23日的 09点(UTC)
风速5节,风向
能见度10公里或以上
多云层高于4000英尺
短暂存在
从 22日的 10点(UTC)到 23日的 01点(UTC)
风速10节,风向东转东南,有时为20节阵风

TAF: LFSX 220800Z 2209/2309 10005KT 9999 BKN040 TEMPO 2210/2301 12010G20KT

超过4000个机场的气象观测和天气预报(METAR&TAF报告)。

可查询的气象台以黄色和红色小点在地图上表示。

将鼠标移到小点上方,可查看气象台名称。

然后点击查看天气观测和预报。

如需切换地图:点击带黑十字的绿色按钮放大地图;点击带横线的绿色按钮缩小地图;或者点击绿色箭头查看邻近地区的地图。


METAR-TAF: